Terminal Aerodrome Forecast
Issued by NWS

Home | Current Version | Previous Version | Graphics & Text | Print | Product List | Glossary On
Versions: 1 2 3 4 5 6 7 8 9 10 11 12 13
000
FTUS43 KGRB 031721
TAFAUW
TAF
KAUW 031721Z 0318/0418 24008KT P6SM SCT050 BKN250
     FM040100 26003KT P6SM VCSH SCT040 BKN110
      TEMPO 0401/0403 5SM -TSRA BR BKN030CB
     FM040300 VRB03KT P6SM SCT040 SCT110
     FM040900 VRB02KT 5SM BR FEW003
     FM041300 VRB03KT P6SM SCT035=

USA.gov is the U.S. government's official web portal to all federal, state and local government web resources and services.